Hunt, NY (14846)

8:36 PM EDT on July 30, 2015 (GMT -0400)
Dalton | | Change Station
CLOSE
Current Station
Personal Weather Station
Location: Dalton, NY
Elevation: 1913 ft
Nearby Weather Stations

Elev 1913 ft 42.51 °N, 77.92 °W | Updated 8 minutes ago

Clear
Clear
69.4 °F
Feels Like 69.4 °F
N
0.0
Wind Variable Wind from NE
Gusts 5.0 mph

Today
High -- | Low -- °F
--% Chance of Precip.
Yesterday
High -- | Low -- °F
Precip. -- in
6:01 AM 8:34 PM
Full, 100% visible
Pressure 29.90 in
Visibility 10.0 miles
Clouds Scattered Clouds 7000 ft
Dew Point 59 °F
Humidity 70%
Rainfall 0.25 in
Snow Depth Not available.
UV 0 out of 12
Pollen 7.50 out of 12
Air Quality Not available.
Flu Activity Not available.
METAR KDSV 302354Z AUTO VRB03KT 10SM SCT070 26/14 A2989 RMK AO2 SLP124 T02560144 10294 20256 53006

More Conditions Fewer Conditions

Pressure 29.90 in
Visibility 10.0 miles
Clouds Scattered Clouds 7000 ft
Dew Point 59 °F
Humidity 70%
Rainfall 0.25 in
Snow Depth Not available.
UV 0 out of 12
Pollen 7.50 out of 12
Air Quality Not available.
Flu Activity Not available.
METAR KDSV 302354Z AUTO VRB03KT 10SM SCT070 26/14 A2989 RMK AO2 SLP124 T02560144 10294 20256 53006

More Conditions Fewer Conditions

10-Day Weather Forecast

×

Almanac

Astronomy

Jul. 30, 2015 Rise Set
Actual Time
Civil Twilight
Nautical Twilight
Astronomical Twilight
Moon
Length of Visible Light
Length of Day
Tomorrow will be .
, % of the Moon is Illuminated

Today's Extremes

State Highs State Lows

Community

WunderPhotos

Upload Photos

1,842,549 photos uploaded!

WunderBlogs® & News

Nearby

Air Quality

  Air Quality AQ Index Pollutant
Not available.

Snow Depth

Station Depth Elevation

Earthquake Activity

City Distance Mag. Time & Date
Minimum magnitude displayed is 2.5.

Coastal Water Temperatures

Place Temperature

Stations

Nearby Weather Stations

Station Location Temp. Windchill Dew Point Humidity Wind Precip. Elev Updated Type